Time;durP1;ratioP1;P1;durP2;ratioP2;P2;SDS_P1;SDS_P2;PMS_P1;PMS_P2;Temp;Humidity;BMP_temperature;BMP_pressure;BME280_temperature;BME280_humidity;BME280_pressure;Samples;Min_cycle;Max_cycle;Signal;HPM_P1;HPM_P2
2024/03/06 00:00:16;;;;;;;22.80;15.40;;;;;;;;;;6192604;23;20409;-88
2024/03/06 00:03:00;;;;;;;23.67;16.00;;;;;;;;;;6202017;23;20502;-90
2024/03/06 00:05:32;;;;;;;29.07;16.57;;;;;;;;;;6200584;23;20452;-91
2024/03/06 00:08:06;;;;;;;24.13;16.23;;;;;;;;;;6205082;23;20417;-90
2024/03/06 00:10:49;;;;;;;27.30;18.03;;;;;;;;;;6204111;23;20410;-91
2024/03/06 00:13:22;;;;;;;26.97;17.80;;;;;;;;;;6199665;23;20476;-91
2024/03/06 00:25:02;;;;;;;25.67;17.10;;;;;;;;;;6196488;22;20441;-90
2024/03/06 00:30:28;;;;;;;30.70;17.80;;;;;;;;;;6223345;23;20436;-91
2024/03/06 00:36:05;;;;;;;27.97;18.63;;;;;;;;;;6229844;22;20523;-88
2024/03/06 00:38:45;;;;;;;26.80;17.53;;;;;;;;;;6209116;23;20422;-89
2024/03/06 00:41:34;;;;;;;25.63;17.93;;;;;;;;;;6208598;22;20476;-89
2024/03/06 00:47:21;;;;;;;28.27;17.83;;;;;;;;;;6235428;23;20428;-87
2024/03/06 00:50:16;;;;;;;27.70;18.00;;;;;;;;;;6205855;23;20464;-89
2024/03/06 00:53:13;;;;;;;27.37;17.67;;;;;;;;;;6229639;23;20875;-90
2024/03/06 00:55:54;;;;;;;28.63;17.87;;;;;;;;;;6203510;23;20418;-88
2024/03/06 00:58:31;;;;;;;29.53;19.43;;;;;;;;;;6204459;23;20439;-89
2024/03/06 01:01:20;;;;;;;24.93;17.47;;;;;;;;;;6206212;23;20433;-89
2024/03/06 01:04:03;;;;;;;30.90;18.60;;;;;;;;;;6199560;23;20505;-90
2024/03/06 01:07:10;;;;;;;27.27;17.83;;;;;;;;;;6201885;23;20425;-89
2024/03/06 01:09:42;;;;;;;32.50;18.57;;;;;;;;;;6187963;23;20389;-89
2024/03/06 01:16:00;;;;;;;23.20;15.77;;;;;;;;;;6221061;23;20458;-91
2024/03/06 01:18:45;;;;;;;24.00;15.93;;;;;;;;;;6197225;23;20463;-87
2024/03/06 01:21:33;;;;;;;32.77;19.27;;;;;;;;;;6220860;23;20409;-89
2024/03/06 01:24:15;;;;;;;26.70;16.43;;;;;;;;;;6191421;23;20464;-88
2024/03/06 01:26:56;;;;;;;18.60;14.33;;;;;;;;;;6220052;23;20413;-88
2024/03/06 01:29:42;;;;;;;20.73;14.30;;;;;;;;;;6196015;23;20767;-90
2024/03/06 01:32:35;;;;;;;;;;;;;;;;;;;;;
2024/03/06 01:35:32;;;;;;;20.30;14.00;;;;;;;;;;6221860;23;20417;-89
2024/03/06 01:41:09;;;;;;;18.00;12.60;;;;;;;;;;6197549;22;20512;-92
2024/03/06 01:43:48;;;;;;;20.80;13.43;;;;;;;;;;6198620;23;20531;-87
2024/03/06 01:46:55;;;;;;;20.80;14.80;;;;;;;;;;6160179;23;20433;-88
2024/03/06 01:49:37;;;;;;;;;;;;;;;;;;;;;
2024/03/06 01:55:57;;;;;;;19.90;13.10;;;;;;;;;;6167395;23;20433;-90
2024/03/06 01:58:30;;;;;;;20.90;13.80;;;;;;;;;;6160421;23;20414;-89
2024/03/06 02:01:07;;;;;;;22.07;14.07;;;;;;;;;;6162532;23;20782;-88
2024/03/06 02:04:18;;;;;;;20.83;13.30;;;;;;;;;;6157084;23;21002;-89
2024/03/06 02:07:06;;;;;;;18.50;13.13;;;;;;;;;;6163327;23;20405;-89
2024/03/06 02:10:14;;;;;;;20.43;13.50;;;;;;;;;;6159824;23;20410;-90
2024/03/06 02:16:32;;;;;;;20.67;12.83;;;;;;;;;;6185238;23;20438;-87
2024/03/06 02:19:15;;;;;;;20.87;14.67;;;;;;;;;;6161775;23;20417;-89
2024/03/06 02:21:57;;;;;;;22.33;14.67;;;;;;;;;;6171499;23;20410;-89
2024/03/06 02:24:28;;;;;;;23.73;15.50;;;;;;;;;;6156370;23;20448;-89
2024/03/06 02:27:11;;;;;;;21.80;14.73;;;;;;;;;;6163995;23;20398;-89
2024/03/06 02:33:03;;;;;;;20.50;13.37;;;;;;;;;;6184479;23;20417;-89
2024/03/06 02:35:43;;;;;;;18.40;12.40;;;;;;;;;;6166979;23;20951;-89
2024/03/06 02:38:13;;;;;;;20.40;14.13;;;;;;;;;;6158726;23;20402;-89
2024/03/06 02:41:03;;;;;;;23.57;14.27;;;;;;;;;;6169542;23;20425;-91
2024/03/06 02:43:37;;;;;;;20.00;13.33;;;;;;;;;;6159083;23;20938;-88
2024/03/06 02:46:18;;;;;;;18.50;13.53;;;;;;;;;;6165313;23;20410;-89
2024/03/06 02:49:05;;;;;;;20.67;13.67;;;;;;;;;;6160745;23;20425;-89
2024/03/06 02:51:45;;;;;;;21.83;14.70;;;;;;;;;;6159494;23;20438;-89
2024/03/06 02:54:25;;;;;;;20.53;13.90;;;;;;;;;;6158873;23;20438;-88
2024/03/06 02:56:56;;;;;;;20.67;13.60;;;;;;;;;;6156470;23;21124;-88
2024/03/06 02:59:44;;;;;;;17.60;12.30;;;;;;;;;;6157882;23;20446;-89
2024/03/06 03:02:21;;;;;;;18.57;13.63;;;;;;;;;;6157031;23;20457;-88
2024/03/06 03:05:09;;;;;;;21.03;14.03;;;;;;;;;;6154769;23;20540;-90
2024/03/06 03:07:44;;;;;;;19.10;12.03;;;;;;;;;;6156923;23;20405;-89
2024/03/06 03:10:26;;;;;;;16.30;10.97;;;;;;;;;;6184736;23;20434;-89
2024/03/06 03:12:54;;;;;;;22.10;12.90;;;;;;;;;;6160195;23;20443;-88
2024/03/06 03:15:29;;;;;;;16.70;12.10;;;;;;;;;;6160059;23;20430;-88
2024/03/06 03:18:05;;;;;;;16.50;11.70;;;;;;;;;;6161623;23;21106;-90
2024/03/06 03:20:36;;;;;;;18.43;13.23;;;;;;;;;;6161376;23;20411;-90
2024/03/06 03:23:21;;;;;;;19.67;13.20;;;;;;;;;;6163888;23;20421;-89
2024/03/06 03:26:06;;;;;;;15.57;12.60;;;;;;;;;;6160424;23;20430;-89
2024/03/06 03:29:01;;;;;;;16.87;11.47;;;;;;;;;;6161550;23;20417;-87
2024/03/06 03:31:41;;;;;;;16.50;11.43;;;;;;;;;;6163733;23;20432;-88
2024/03/06 03:34:23;;;;;;;17.07;11.73;;;;;;;;;;6163165;23;20429;-89
2024/03/06 03:37:11;;;;;;;20.67;12.60;;;;;;;;;;6173030;23;20419;-90
2024/03/06 03:43:06;;;;;;;17.80;11.93;;;;;;;;;;6211331;23;20425;-88
2024/03/06 03:45:59;;;;;;;18.17;12.40;;;;;;;;;;6167500;23;20444;-89
2024/03/06 03:49:02;;;;;;;18.67;12.33;;;;;;;;;;6167713;23;20405;-89
2024/03/06 03:51:55;;;;;;;19.83;12.00;;;;;;;;;;6165006;23;20405;-87
2024/03/06 03:55:05;;;;;;;13.87;10.33;;;;;;;;;;6165071;23;20985;-89
2024/03/06 03:57:57;;;;;;;14.90;10.50;;;;;;;;;;6167444;23;20401;-87
2024/03/06 04:00:55;;;;;;;12.60;9.00;;;;;;;;;;6164446;23;20468;-89
2024/03/06 04:03:50;;;;;;;;;;;;;;;;;;;;;
2024/03/06 04:06:49;;;;;;;7.80;6.40;;;;;;;;;;6082238;23;20447;-88
2024/03/06 04:09:30;;;;;;;8.60;6.47;;;;;;;;;;6089600;23;20429;-90
2024/03/06 04:12:15;;;;;;;8.23;5.70;;;;;;;;;;6181349;23;20397;-91
2024/03/06 04:15:00;;;;;;;5.80;4.70;;;;;;;;;;6173018;23;20430;-89
2024/03/06 04:17:54;;;;;;;7.20;4.80;;;;;;;;;;6166149;23;20430;-88
2024/03/06 04:20:34;;;;;;;8.07;5.50;;;;;;;;;;6166262;23;20917;-89
2024/03/06 04:23:30;;;;;;;6.37;5.07;;;;;;;;;;6172970;23;20406;-89
2024/03/06 04:26:17;;;;;;;6.23;4.50;;;;;;;;;;6174972;23;20428;-89
2024/03/06 04:28:57;;;;;;;6.13;5.03;;;;;;;;;;6168233;23;20413;-89
2024/03/06 04:31:26;;;;;;;11.47;5.33;;;;;;;;;;6171233;23;20402;-91
2024/03/06 04:34:01;;;;;;;6.80;4.73;;;;;;;;;;6181088;23;20420;-90
2024/03/06 04:36:48;;;;;;;7.47;5.13;;;;;;;;;;6182606;23;20497;-90
2024/03/06 04:39:41;;;;;;;7.00;4.23;;;;;;;;;;6185735;23;20429;-92
2024/03/06 04:42:33;;;;;;;5.80;4.60;;;;;;;;;;6173854;23;20669;-91
2024/03/06 04:45:29;;;;;;;6.40;5.10;;;;;;;;;;6166723;23;20449;-90
2024/03/06 04:48:11;;;;;;;5.27;4.37;;;;;;;;;;6181570;23;20402;-92
2024/03/06 04:50:44;;;;;;;6.20;4.53;;;;;;;;;;6175774;23;20441;-89
2024/03/06 04:53:42;;;;;;;6.93;4.60;;;;;;;;;;6179479;23;20454;-91
2024/03/06 04:56:16;;;;;;;4.20;3.40;;;;;;;;;;6178727;23;20429;-92
2024/03/06 04:59:23;;;;;;;4.83;3.43;;;;;;;;;;6182969;23;20417;-88
2024/03/06 05:02:08;;;;;;;3.97;3.40;;;;;;;;;;6182865;23;20489;-90
2024/03/06 05:04:47;;;;;;;2.63;2.43;;;;;;;;;;6183165;23;20448;-91
2024/03/06 05:07:54;;;;;;;3.50;2.83;;;;;;;;;;6207200;23;20421;-92
2024/03/06 05:10:44;;;;;;;4.00;2.67;;;;;;;;;;6186224;23;20370;-90
2024/03/06 05:13:32;;;;;;;4.13;2.97;;;;;;;;;;6186507;23;20358;-90
2024/03/06 05:16:39;;;;;;;3.10;2.90;;;;;;;;;;6186205;23;20377;-90
2024/03/06 05:19:32;;;;;;;3.67;3.03;;;;;;;;;;6185352;23;20365;-88
2024/03/06 05:22:25;;;;;;;3.77;3.23;;;;;;;;;;6186035;23;20378;-90
2024/03/06 05:25:17;;;;;;;3.23;2.90;;;;;;;;;;6173299;23;20498;-89
2024/03/06 05:28:04;;;;;;;3.43;3.00;;;;;;;;;;6170481;23;20369;-89
2024/03/06 05:30:54;;;;;;;3.37;3.00;;;;;;;;;;6171705;23;20385;-88
2024/03/06 05:33:49;;;;;;;2.87;2.67;;;;;;;;;;6177922;23;20354;-91
2024/03/06 05:36:34;;;;;;;3.60;3.27;;;;;;;;;;6185355;23;20430;-91
2024/03/06 05:39:46;;;;;;;;;;;;;;;;;;;;;
2024/03/06 05:42:42;;;;;;;3.60;3.20;;;;;;;;;;6206788;23;20445;-91
2024/03/06 05:45:35;;;;;;;3.43;2.73;;;;;;;;;;6173470;23;20444;-90
2024/03/06 05:48:27;;;;;;;8.00;3.07;;;;;;;;;;6172023;23;20366;-88
2024/03/06 05:51:31;;;;;;;6.40;3.37;;;;;;;;;;6170905;23;20738;-91
2024/03/06 05:54:29;;;;;;;3.93;3.50;;;;;;;;;;6176259;23;20425;-90
2024/03/06 05:57:16;;;;;;;3.80;3.00;;;;;;;;;;6174735;23;20850;-89
2024/03/06 06:00:16;;;;;;;6.80;3.63;;;;;;;;;;6175324;23;20362;-89
2024/03/06 06:03:17;;;;;;;5.33;3.47;;;;;;;;;;6130673;23;20544;-89
2024/03/06 06:05:56;;;;;;;3.10;2.80;;;;;;;;;;6173330;23;20492;-90
2024/03/06 06:12:00;;;;;;;3.90;3.10;;;;;;;;;;6086890;23;20392;-88
2024/03/06 06:14:49;;;;;;;4.33;3.00;;;;;;;;;;6076692;23;20436;-88
2024/03/06 06:17:44;;;;;;;;;;;;;;;;;;;;;
2024/03/06 06:20:24;;;;;;;3.43;3.13;;;;;;;;;;6071002;23;20428;-89
2024/03/06 06:23:45;;;;;;;;;;;;;;;;;;;;;
2024/03/06 06:26:24;;;;;;;4.23;3.13;;;;;;;;;;6096438;23;20484;-89
2024/03/06 06:29:29;;;;;;;4.60;3.00;;;;;;;;;;6060764;23;20397;-90
2024/03/06 06:32:13;;;;;;;7.00;4.70;;;;;;;;;;6081983;23;20446;-89
2024/03/06 06:35:24;;;;;;;;;;;;;;;;;;;;;
2024/03/06 06:41:16;;;;;;;3.50;3.20;;;;;;;;;;6100732;23;20487;-91
2024/03/06 06:44:24;;;;;;;5.70;3.63;;;;;;;;;;6175538;23;20442;-91
2024/03/06 06:47:17;;;;;;;3.53;3.23;;;;;;;;;;6171817;23;20763;-88
2024/03/06 06:49:58;;;;;;;4.10;3.40;;;;;;;;;;6172987;23;20518;-90
2024/03/06 06:52:59;;;;;;;;;;;;;;;;;;;;;
2024/03/06 06:55:47;;;;;;;3.50;3.20;;;;;;;;;;6177204;23;20427;-91
2024/03/06 07:01:40;;;;;;;6.13;3.60;;;;;;;;;;6176826;23;20414;-92
2024/03/06 07:04:39;;;;;;;4.77;4.03;;;;;;;;;;6150469;23;20513;-90
2024/03/06 07:07:30;;;;;;;5.10;3.57;;;;;;;;;;6157968;23;20757;-91
2024/03/06 07:10:31;;;;;;;6.80;2.90;;;;;;;;;;6157087;23;20383;-91
2024/03/06 07:14:04;;;;;;;4.83;3.60;;;;;;;;;;6161681;23;20466;-90
2024/03/06 07:17:00;;;;;;;3.70;2.63;;;;;;;;;;6152885;23;20406;-87
2024/03/06 07:20:01;;;;;;;3.90;3.50;;;;;;;;;;6147423;23;20403;-87
2024/03/06 07:23:04;;;;;;;3.60;3.30;;;;;;;;;;5999791;23;20407;-88
2024/03/06 07:37:38;;;;;;;6.53;3.70;;;;;;;;;;6172750;23;20449;-90
2024/03/06 07:40:32;;;;;;;3.40;3.03;;;;;;;;;;6195261;23;20455;-91
2024/03/06 07:47:00;;;;;;;5.77;4.03;;;;;;;;;;6137330;23;20459;-89
2024/03/06 07:50:02;;;;;;;6.80;4.60;;;;;;;;;;6135508;23;20580;-90
2024/03/06 07:53:03;;;;;;;5.87;3.73;;;;;;;;;;6101663;23;20463;-89
2024/03/06 07:58:41;;;;;;;6.53;4.30;;;;;;;;;;6163666;23;20447;-88
2024/03/06 08:05:13;;;;;;;7.57;6.20;;;;;;;;;;6165132;23;20434;-89
2024/03/06 08:11:38;;;;;;;7.13;5.50;;;;;;;;;;6165931;23;20358;-92
2024/03/06 08:14:30;;;;;;;8.77;6.23;;;;;;;;;;6130750;23;20449;-89
2024/03/06 08:17:41;;;;;;;10.60;6.67;;;;;;;;;;6139757;23;20407;-90
2024/03/06 08:20:39;;;;;;;8.50;6.50;;;;;;;;;;6162520;23;20401;-89
2024/03/06 08:23:43;;;;;;;10.20;7.37;;;;;;;;;;6136954;23;21184;-92
2024/03/06 08:26:52;;;;;;;13.87;8.23;;;;;;;;;;6140436;23;20491;-89
2024/03/06 08:29:46;;;;;;;9.40;7.63;;;;;;;;;;6143112;23;20423;-89
2024/03/06 08:32:47;;;;;;;11.57;7.50;;;;;;;;;;6141730;23;20410;-90
2024/03/06 08:35:31;;;;;;;11.43;7.80;;;;;;;;;;6138499;23;20445;-91
2024/03/06 08:38:20;;;;;;;12.00;7.10;;;;;;;;;;6142821;23;20414;-89
2024/03/06 08:41:06;;;;;;;11.40;8.60;;;;;;;;;;6167115;23;20389;-89
2024/03/06 08:43:47;;;;;;;12.03;8.70;;;;;;;;;;6171177;23;20497;-88
2024/03/06 08:46:49;;;;;;;12.23;8.00;;;;;;;;;;6141105;23;20406;-89
2024/03/06 08:51:57;;;;;;;11.77;7.70;;;;;;;;;;6180655;23;20433;-88
2024/03/06 08:55:04;;;;;;;12.90;7.50;;;;;;;;;;6168762;23;20425;-90
2024/03/06 08:57:53;;;;;;;10.33;8.10;;;;;;;;;;6107107;23;20519;-92
2024/03/06 09:00:53;;;;;;;13.60;9.07;;;;;;;;;;6152492;23;20414;-92
2024/03/06 09:04:18;;;;;;;14.93;8.77;;;;;;;;;;6175960;23;20392;-89
2024/03/06 09:07:37;;;;;;;13.13;8.53;;;;;;;;;;6173250;23;20420;-87
2024/03/06 09:20:29;;;;;;;13.43;7.47;;;;;;;;;;6206581;23;20416;-89
2024/03/06 09:26:39;;;;;;;10.10;6.50;;;;;;;;;;6199976;23;21047;-91
2024/03/06 09:34:59;;;;;;;7.00;5.90;;;;;;;;;;6192630;23;20461;-92
2024/03/06 09:37:51;;;;;;;8.70;6.20;;;;;;;;;;6179483;23;20401;-92
2024/03/06 09:41:01;;;;;;;6.40;4.90;;;;;;;;;;6018328;23;20382;-91
2024/03/06 09:43:46;;;;;;;5.40;4.90;;;;;;;;;;6032594;23;20407;-91
2024/03/06 09:53:33;;;;;;;8.10;5.20;;;;;;;;;;6061812;23;20357;-90
2024/03/06 09:59:19;;;;;;;7.17;5.50;;;;;;;;;;6207747;23;20416;-89
2024/03/06 10:02:13;;;;;;;9.40;5.83;;;;;;;;;;6203028;23;20413;-89
2024/03/06 10:05:08;;;;;;;8.33;5.83;;;;;;;;;;6188800;23;20450;-88
2024/03/06 10:11:30;;;;;;;6.87;6.13;;;;;;;;;;6210832;23;20388;-89
2024/03/06 10:14:29;;;;;;;9.57;5.77;;;;;;;;;;6186282;23;20421;-90
2024/03/06 10:17:22;;;;;;;6.60;5.90;;;;;;;;;;6178748;23;20421;-88
2024/03/06 10:20:43;;;;;;;6.20;5.60;;;;;;;;;;6170344;23;20405;-86
2024/03/06 10:27:09;;;;;;;7.57;6.27;;;;;;;;;;6176446;23;20427;-89
2024/03/06 10:35:27;;;;;;;8.10;7.00;;;;;;;;;;6162554;23;20446;-91
2024/03/06 10:41:40;;;;;;;12.00;7.80;;;;;;;;;;6186646;23;20453;-88
2024/03/06 10:44:36;;;;;;;8.03;6.93;;;;;;;;;;6166991;23;20458;-88
2024/03/06 10:50:52;;;;;;;10.20;8.40;;;;;;;;;;6183140;23;20420;-88
2024/03/06 10:53:30;;;;;;;9.40;7.70;;;;;;;;;;6166262;23;20410;-88
2024/03/06 10:56:47;;;;;;;10.97;8.40;;;;;;;;;;6166785;23;20416;-87
2024/03/06 11:02:48;;;;;;;11.63;7.80;;;;;;;;;;6191005;23;20445;-87
2024/03/06 11:08:52;;;;;;;10.47;9.00;;;;;;;;;;6153100;23;20488;-89
2024/03/06 11:11:33;;;;;;;11.20;8.60;;;;;;;;;;6170164;23;20405;-88
2024/03/06 11:22:26;;;;;;;19.03;15.03;;;;;;;;;;6136322;23;20473;-89
2024/03/06 11:25:55;;;;;;;;;;;;;;;;;;;;;
2024/03/06 11:32:12;;;;;;;15.50;12.13;;;;;;;;;;6175050;23;20463;-90
2024/03/06 11:38:13;;;;;;;14.77;12.27;;;;;;;;;;6198690;23;20388;-90
2024/03/06 11:41:21;;;;;;;20.13;12.10;;;;;;;;;;6098365;23;20408;-90
2024/03/06 11:44:14;;;;;;;15.10;12.53;;;;;;;;;;6172880;23;20418;-91
2024/03/06 11:50:19;;;;;;;14.40;12.13;;;;;;;;;;6102167;23;20413;-89
2024/03/06 11:52:57;;;;;;;14.10;11.10;;;;;;;;;;6165018;23;20497;-90
2024/03/06 11:56:14;;;;;;;14.13;11.87;;;;;;;;;;6170029;23;20396;-88
2024/03/06 11:59:01;;;;;;;15.60;11.13;;;;;;;;;;6166530;23;20444;-91
2024/03/06 12:01:43;;;;;;;14.13;10.77;;;;;;;;;;6171327;23;20505;-90
2024/03/06 12:07:35;;;;;;;12.93;11.23;;;;;;;;;;6160889;23;20448;-89
2024/03/06 12:10:55;;;;;;;16.60;11.17;;;;;;;;;;6089826;23;20455;-90
2024/03/06 12:14:18;;;;;;;17.37;12.60;;;;;;;;;;6140354;23;20402;-89
2024/03/06 12:17:15;;;;;;;16.60;10.97;;;;;;;;;;6130702;23;20455;-89
2024/03/06 12:19:56;;;;;;;14.73;11.10;;;;;;;;;;6103915;23;20419;-89
2024/03/06 12:22:39;;;;;;;16.50;11.97;;;;;;;;;;6110639;23;20407;-89
2024/03/06 12:25:30;;;;;;;15.30;11.70;;;;;;;;;;6108003;23;20452;-90
2024/03/06 12:28:30;;;;;;;14.30;11.10;;;;;;;;;;6109251;23;20852;-90
2024/03/06 12:34:51;;;;;;;13.67;10.90;;;;;;;;;;6138057;23;20390;-91
2024/03/06 12:37:48;;;;;;;14.63;10.80;;;;;;;;;;6117572;23;20413;-90
2024/03/06 12:40:32;;;;;;;13.03;10.00;;;;;;;;;;6116751;23;20407;-90
2024/03/06 12:43:09;;;;;;;13.80;10.93;;;;;;;;;;6110724;23;21140;-88
2024/03/06 12:46:02;;;;;;;13.97;11.03;;;;;;;;;;6110026;23;20448;-88
2024/03/06 12:48:59;;;;;;;13.80;10.47;;;;;;;;;;6108820;23;20411;-91
2024/03/06 12:51:34;;;;;;;12.33;9.77;;;;;;;;;;6115921;23;20419;-89
2024/03/06 12:54:20;;;;;;;11.77;9.57;;;;;;;;;;6118689;23;20424;-90
2024/03/06 12:56:53;;;;;;;12.13;10.00;;;;;;;;;;6122901;23;20395;-92
2024/03/06 12:59:21;;;;;;;13.00;9.57;;;;;;;;;;6121584;23;20408;-92
2024/03/06 13:04:48;;;;;;;11.20;8.47;;;;;;;;;;6135027;23;20479;-88
2024/03/06 13:07:22;;;;;;;13.83;10.10;;;;;;;;;;6113041;23;20502;-88
2024/03/06 13:09:57;;;;;;;8.40;7.43;;;;;;;;;;6112596;23;20415;-89
2024/03/06 13:12:47;;;;;;;12.07;8.27;;;;;;;;;;6112735;23;20412;-88
2024/03/06 13:15:33;;;;;;;13.10;10.00;;;;;;;;;;6113616;23;20479;-88
2024/03/06 13:22:05;;;;;;;10.60;7.57;;;;;;;;;;6137962;23;20907;-90
2024/03/06 13:24:40;;;;;;;9.77;8.47;;;;;;;;;;6113468;23;20502;-88
2024/03/06 13:27:42;;;;;;;8.60;7.50;;;;;;;;;;6123144;23;20388;-91
2024/03/06 13:30:30;;;;;;;8.87;7.97;;;;;;;;;;6124084;23;20375;-90
2024/03/06 13:33:33;;;;;;;7.60;6.57;;;;;;;;;;6148583;23;20517;-90
2024/03/06 13:36:04;;;;;;;7.80;6.73;;;;;;;;;;6178677;23;20461;-90
2024/03/06 13:39:06;;;;;;;8.20;7.03;;;;;;;;;;6171345;23;20386;-92
2024/03/06 13:41:51;;;;;;;7.70;6.40;;;;;;;;;;6165336;23;20402;-90
2024/03/06 13:44:46;;;;;;;5.97;5.47;;;;;;;;;;6169008;23;20419;-92
2024/03/06 13:47:50;;;;;;;4.13;3.70;;;;;;;;;;6182508;23;20442;-89
2024/03/06 13:50:34;;;;;;;5.30;4.60;;;;;;;;;;6174194;23;20414;-89
2024/03/06 14:05:09;;;;;;;6.20;4.13;;;;;;;;;;6132677;23;20481;-90
2024/03/06 14:11:35;;;;;;;8.87;6.43;;;;;;;;;;6048449;23;20453;-89
2024/03/06 14:17:54;;;;;;;7.03;5.50;;;;;;;;;;6079102;23;20501;-90
2024/03/06 14:21:06;;;;;;;;;;;;;;;;;;;;;
2024/03/06 14:27:15;;;;;;;3.73;2.83;;;;;;;;;;6144213;23;20450;-90
2024/03/06 14:30:11;;;;;;;3.27;2.97;;;;;;;;;;6136143;23;20403;-89
2024/03/06 14:32:56;;;;;;;4.13;2.90;;;;;;;;;;6138149;23;20537;-90
2024/03/06 14:35:45;;;;;;;2.87;2.60;;;;;;;;;;6119601;23;20419;-89
2024/03/06 14:39:03;;;;;;;2.97;2.37;;;;;;;;;;6140962;23;20474;-89
2024/03/06 14:45:06;;;;;;;5.30;2.93;;;;;;;;;;6123857;23;20558;-88
2024/03/06 14:51:53;;;;;;;3.13;2.63;;;;;;;;;;6162907;23;20407;-88
2024/03/06 14:54:41;;;;;;;5.03;2.90;;;;;;;;;;6146623;23;20963;-90
2024/03/06 14:57:33;;;;;;;3.40;3.00;;;;;;;;;;6145386;23;20449;-89
2024/03/06 15:00:20;;;;;;;4.27;3.40;;;;;;;;;;6146429;23;20445;-87
2024/03/06 15:06:08;;;;;;;4.70;3.60;;;;;;;;;;6172282;23;20439;-90
2024/03/06 15:08:47;;;;;;;3.83;3.50;;;;;;;;;;6152102;23;20461;-90
2024/03/06 15:18:40;;;;;;;4.50;2.73;;;;;;;;;;6076899;23;20480;-89
2024/03/06 15:25:09;;;;;;;5.63;4.00;;;;;;;;;;6107820;23;20440;-90
2024/03/06 15:32:11;;;;;;;4.87;3.50;;;;;;;;;;6050785;23;20384;-90
2024/03/06 15:35:09;;;;;;;4.07;3.60;;;;;;;;;;6012397;23;20439;-88
2024/03/06 15:47:11;;;;;;;3.90;3.60;;;;;;;;;;6192958;23;20437;-90
2024/03/06 15:49:56;;;;;;;;;;;;;;;;;;;;;
2024/03/06 15:57:03;;;;;;;;;;;;;;;;;;;;;
2024/03/06 15:59:48;;;;;;;5.93;3.70;;;;;;;;;;6197197;23;20409;-89
2024/03/06 16:02:38;;;;;;;4.17;3.30;;;;;;;;;;6176600;23;20522;-90
2024/03/06 16:11:08;;;;;;;5.63;4.70;;;;;;;;;;6200622;23;20441;-89
2024/03/06 16:35:52;;;;;;;10.53;8.23;;;;;;;;;;6200478;23;20400;-88
2024/03/06 16:39:04;;;;;;;;;;;;;;;;;;;;;
2024/03/06 16:42:07;;;;;;;12.43;8.90;;;;;;;;;;6078120;23;20793;-88
2024/03/06 16:53:14;;;;;;;13.67;10.70;;;;;;;;;;6200920;23;20453;-88
2024/03/06 16:56:39;;;;;;;13.80;10.40;;;;;;;;;;6181824;23;20475;-89
2024/03/06 16:59:37;;;;;;;14.87;10.87;;;;;;;;;;6201876;23;20390;-88
2024/03/06 17:03:08;;;;;;;17.53;12.93;;;;;;;;;;6182315;23;20403;-89
2024/03/06 17:09:21;;;;;;;18.97;14.00;;;;;;;;;;5938120;24;20408;-89
2024/03/06 17:15:40;;;;;;;16.73;13.43;;;;;;;;;;5968824;24;20461;-90
2024/03/06 17:21:49;;;;;;;18.10;14.40;;;;;;;;;;6090537;23;20387;-89
2024/03/06 17:24:55;;;;;;;20.20;14.20;;;;;;;;;;6069373;23;20457;-90
2024/03/06 17:27:41;;;;;;;19.70;14.33;;;;;;;;;;6072096;23;20393;-88
2024/03/06 18:01:12;;;;;;;21.93;15.70;;;;;;;;;;6194574;23;20438;-92
2024/03/06 20:46:21;;;;;;;28.10;20.13;;;;;;;;;;6184532;23;20485;-90
2024/03/06 20:49:21;;;;;;;26.37;18.90;;;;;;;;;;6157760;23;20945;-88
2024/03/06 20:52:14;;;;;;;26.40;18.30;;;;;;;;;;6172452;23;20465;-89
2024/03/06 20:55:06;;;;;;;25.87;17.77;;;;;;;;;;6162206;23;20416;-89
2024/03/06 21:48:02;;;;;;;29.80;19.00;;;;;;;;;;6195959;23;20449;-90
2024/03/06 22:43:06;;;;;;;26.23;17.67;;;;;;;;;;6236103;23;20456;-90
2024/03/06 23:05:21;;;;;;;27.83;18.50;;;;;;;;;;6216946;23;20480;-90
2024/03/06 23:08:35;;;;;;;24.30;16.90;;;;;;;;;;6243011;23;20451;-90
2024/03/06 23:11:28;;;;;;;27.93;18.77;;;;;;;;;;6184884;23;20528;-90
2024/03/06 23:19:43;;;;;;;28.43;18.80;;;;;;;;;;6183040;23;20450;-88
2024/03/06 23:22:50;;;;;;;25.27;18.37;;;;;;;;;;6192062;23;20398;-88
2024/03/06 23:25:47;;;;;;;26.13;18.93;;;;;;;;;;6051162;23;20442;-89
2024/03/06 23:28:36;;;;;;;27.03;17.10;;;;;;;;;;6179006;23;20434;-89
2024/03/06 23:31:22;;;;;;;24.30;17.77;;;;;;;;;;6178027;23;20397;-89
2024/03/06 23:34:13;;;;;;;27.73;18.10;;;;;;;;;;6174447;23;21210;-90
2024/03/06 23:40:54;;;;;;;25.20;16.70;;;;;;;;;;6198135;23;20345;-88
2024/03/06 23:43:40;;;;;;;29.87;17.80;;;;;;;;;;6195782;23;20402;-88
2024/03/06 23:46:18;;;;;;;25.77;17.50;;;;;;;;;;6173483;23;20449;-89
2024/03/06 23:48:53;;;;;;;30.57;18.43;;;;;;;;;;6174580;23;20863;-89
2024/03/06 23:51:38;;;;;;;27.17;19.93;;;;;;;;;;6174014;23;20441;-88
2024/03/06 23:54:22;;;;;;;29.57;20.10;;;;;;;;;;6174040;23;20410;-88
2024/03/06 23:57:06;;;;;;;30.50;20.30;;;;;;;;;;6174569;23;20410;-89
2024/03/06 23:59:47;;;;;;;26.00;17.77;;;;;;;;;;6170370;23;20414;-88
